Time;durP1;ratioP1;P1;durP2;ratioP2;P2;SDS_P1;SDS_P2;PMS_P1;PMS_P2;Temp;Humidity;BMP_temperature;BMP_pressure;BME280_temperature;BME280_humidity;BME280_pressure;Samples;Min_cycle;Max_cycle;Signal;HPM_P1;HPM_P2
2023/04/28 00:01:44;;;;;;;24.3;14.3;;;;;;;2.5;77.3;99150;;;;
2023/04/28 00:12:44;;;;;;;24.3;14.3;;;;;;;2.3;78.5;99150;;;;
2023/04/28 00:22:45;;;;;;;24.3;14.3;;;;;;;2.2;78.9;99160;;;;
2023/04/28 00:33:45;;;;;;;22.8;14.1;;;;;;;1.9;81.2;99150;;;;
2023/04/28 00:44:44;;;;;;;22.8;14.1;;;;;;;1.8;80.7;99140;;;;
2023/04/28 00:55:45;;;;;;;22.8;14.1;;;;;;;1.8;80.9;99140;;;;
2023/04/28 01:05:45;;;;;;;23.3;13.8;;;;;;;1.8;81.7;99140;;;;
2023/04/28 01:16:45;;;;;;;23.3;13.8;;;;;;;1.8;81.7;99150;;;;
2023/04/28 01:27:45;;;;;;;24.6;13.4;;;;;;;1.8;81.4;99150;;;;
2023/04/28 01:38:44;;;;;;;24.6;13.4;;;;;;;1.7;81.3;99150;;;;
2023/04/28 01:48:45;;;;;;;24.6;13.4;;;;;;;1.6;82;99150;;;;
2023/04/28 01:59:45;;;;;;;23;14.2;;;;;;;1.8;81.9;99150;;;;
2023/04/28 02:09:45;;;;;;;23;14.2;;;;;;;1.9;81.7;99140;;;;
2023/04/28 02:19:45;;;;;;;23;14.2;;;;;;;2;81.4;99150;;;;
2023/04/28 02:29:45;;;;;;;22;12.8;;;;;;;2;81.2;99150;;;;
2023/04/28 02:39:45;;;;;;;22;12.8;;;;;;;1.9;81.3;99160;;;;
2023/04/28 02:50:45;;;;;;;22;12.8;;;;;;;2;81.3;99160;;;;
2023/04/28 03:01:45;;;;;;;22;14;;;;;;;1.9;81.3;99140;;;;
2023/04/28 03:11:45;;;;;;;22;14;;;;;;;1.8;81.1;99150;;;;
2023/04/28 03:22:45;;;;;;;22;14;;;;;;;1.7;81.2;99150;;;;
2023/04/28 03:32:45;;;;;;;19.8;12.2;;;;;;;1.6;81.4;99150;;;;
2023/04/28 03:43:45;;;;;;;19.8;12.2;;;;;;;1.7;81.3;99150;;;;
2023/04/28 03:53:45;;;;;;;19.8;12.2;;;;;;;1.8;81.2;99160;;;;
2023/04/28 04:04:45;;;;;;;17.5;11.4;;;;;;;1.8;81.3;99150;;;;
2023/04/28 04:14:45;;;;;;;17.5;11.4;;;;;;;1.9;82;99150;;;;
2023/04/28 04:25:45;;;;;;;17.5;11.4;;;;;;;2.1;81.8;99140;;;;
2023/04/28 04:36:45;;;;;;;17.7;11.4;;;;;;;2.3;81.6;99140;;;;
2023/04/28 04:46:45;;;;;;;17.7;11.4;;;;;;;2.6;81.5;99140;;;;
2023/04/28 04:56:45;;;;;;;17.7;11.4;;;;;;;3.1;81.4;99140;;;;
2023/04/28 05:07:45;;;;;;;17.4;10.2;;;;;;;3.5;81;99140;;;;
2023/04/28 05:17:45;;;;;;;17.4;10.2;;;;;;;4;80.3;99150;;;;
2023/04/28 05:27:45;;;;;;;20.7;13;;;;;;;4.7;79.1;99140;;;;
2023/04/28 05:38:45;;;;;;;20.7;13;;;;;;;5.3;77.3;99140;;;;
2023/04/28 05:48:45;;;;;;;20.7;13;;;;;;;6;75.1;99140;;;;
2023/04/28 05:58:46;;;;;;;21;13.4;;;;;;;6.6;73.5;99140;;;;
2023/04/28 06:08:46;;;;;;;21;13.4;;;;;;;7.2;71.6;99140;;;;
2023/04/28 06:19:45;;;;;;;21;13.4;;;;;;;7.9;68.9;99150;;;;
2023/04/28 06:30:45;;;;;;;25.6;16.7;;;;;;;8.5;67.8;99150;;;;
2023/04/28 06:40:45;;;;;;;25.6;16.7;;;;;;;9.1;66.2;99150;;;;
2023/04/28 06:50:45;;;;;;;25.6;16.7;;;;;;;9.8;64.8;99140;;;;
2023/04/28 07:01:45;;;;;;;20.6;13.9;;;;;;;10.4;62.2;99120;;;;
2023/04/28 07:11:45;;;;;;;20.6;13.9;;;;;;;10.8;56.9;99120;;;;
2023/04/28 07:21:45;;;;;;;20.6;13.9;;;;;;;11.5;55.9;99110;;;;
2023/04/28 07:31:45;;;;;;;16.7;7.2;;;;;;;11.8;50.3;99100;;;;
2023/04/28 07:41:45;;;;;;;16.7;7.2;;;;;;;12.4;50.3;99100;;;;
2023/04/28 07:51:45;;;;;;;16.7;7.2;;;;;;;12.6;45.2;99090;;;;
2023/04/28 08:02:45;;;;;;;6.9;4.1;;;;;;;13.1;44.6;99080;;;;
2023/04/28 08:12:45;;;;;;;6.9;4.1;;;;;;;13.6;40.8;99080;;;;
2023/04/28 08:23:45;;;;;;;6.9;4.1;;;;;;;14.1;39.8;99070;;;;
2023/04/28 08:34:45;;;;;;;12.3;4.6;;;;;;;14.1;40.5;99070;;;;
2023/04/28 08:44:45;;;;;;;12.3;4.6;;;;;;;14.6;39.3;99060;;;;
2023/04/28 08:55:45;;;;;;;12.3;4.6;;;;;;;15;42.1;99060;;;;
2023/04/28 09:05:45;;;;;;;6.2;4;;;;;;;15.1;36.8;99050;;;;
2023/04/28 09:15:45;;;;;;;6.2;4;;;;;;;14.9;37.8;99040;;;;
2023/04/28 09:25:45;;;;;;;6.2;4;;;;;;;15.3;40.4;99030;;;;
2023/04/28 09:36:45;;;;;;;8.8;4.1;;;;;;;14.6;39.5;99020;;;;
2023/04/28 09:47:45;;;;;;;8.8;4.1;;;;;;;14.9;39.9;99010;;;;
2023/04/28 09:58:45;;;;;;;7.4;4.7;;;;;;;15;39.5;99000;;;;
2023/04/28 10:09:47;;;;;;;7.4;4.7;;;;;;;15.4;38.6;98990;;;;
2023/04/28 10:19:45;;;;;;;7.4;4.7;;;;;;;15.5;37.1;98970;;;;
2023/04/28 10:29:45;;;;;;;7.3;4.9;;;;;;;15.3;38;98960;;;;
2023/04/28 10:40:45;;;;;;;7.3;4.9;;;;;;;15.7;38.4;98950;;;;
2023/04/28 10:50:46;;;;;;;7.3;4.9;;;;;;;16.1;40;98940;;;;
2023/04/28 11:01:45;;;;;;;8.9;4.6;;;;;;;16;39.4;98920;;;;
2023/04/28 11:11:45;;;;;;;8.9;4.6;;;;;;;16;37.1;98900;;;;
2023/04/28 11:21:45;;;;;;;8.9;4.6;;;;;;;16.4;38.1;98900;;;;
2023/04/28 11:31:45;;;;;;;6.1;3.9;;;;;;;16.6;39.5;98880;;;;
2023/04/28 11:42:45;;;;;;;6.1;3.9;;;;;;;16.3;37;98870;;;;
2023/04/28 11:52:45;;;;;;;6.1;3.9;;;;;;;16.7;37.9;98850;;;;
2023/04/28 12:03:45;;;;;;;7.1;3.8;;;;;;;16.8;36.6;98830;;;;
2023/04/28 12:13:46;;;;;;;7.1;3.8;;;;;;;16.9;36.5;98820;;;;
2023/04/28 12:24:45;;;;;;;7.1;3.8;;;;;;;16.7;36.3;98810;;;;
2023/04/28 12:34:45;;;;;;;6.8;4.2;;;;;;;16.9;36.2;98800;;;;
2023/04/28 12:45:45;;;;;;;6.8;4.2;;;;;;;17.2;34.5;98780;;;;
2023/04/28 12:56:45;;;;;;;7.9;3.7;;;;;;;17.1;36.3;98770;;;;
2023/04/28 13:06:45;;;;;;;7.9;3.7;;;;;;;17.1;35.4;98750;;;;
2023/04/28 13:16:45;;;;;;;7.9;3.7;;;;;;;17.1;34.9;98740;;;;
2023/04/28 13:26:45;;;;;;;9;4.1;;;;;;;17.4;34.8;98730;;;;
2023/04/28 13:37:45;;;;;;;9;4.1;;;;;;;17.5;35.2;98710;;;;
2023/04/28 13:47:45;;;;;;;9;4.1;;;;;;;17.7;34.8;98700;;;;
2023/04/28 13:58:45;;;;;;;8.5;4.4;;;;;;;18;36.8;98680;;;;
2023/04/28 14:08:45;;;;;;;8.5;4.4;;;;;;;17.8;34.2;98670;;;;
2023/04/28 14:19:45;;;;;;;8.5;4.4;;;;;;;18.3;34.2;98660;;;;
2023/04/28 14:29:47;;;;;;;8.9;4.7;;;;;;;18.4;34.5;98660;;;;
2023/04/28 14:39:45;;;;;;;8.9;4.7;;;;;;;18.3;35.6;98650;;;;
2023/04/28 14:50:45;;;;;;;8.9;4.7;;;;;;;17.7;34.9;98660;;;;
2023/04/28 15:00:45;;;;;;;8.4;5;;;;;;;17.5;35.5;98650;;;;
2023/04/28 15:11:45;;;;;;;8.4;5;;;;;;;17.7;36.1;98640;;;;
2023/04/28 15:21:45;;;;;;;8.4;5;;;;;;;20.1;33;98640;;;;
2023/04/28 15:31:45;;;;;;;6.9;4.1;;;;;;;21.5;30.2;98640;;;;
2023/04/28 15:42:47;;;;;;;6.9;4.1;;;;;;;21.6;30.5;98630;;;;
2023/04/28 15:52:45;;;;;;;6.9;4.1;;;;;;;20.3;31.4;98630;;;;
2023/04/28 16:03:45;;;;;;;10.1;5.4;;;;;;;18.5;33.9;98620;;;;
2023/04/28 16:13:45;;;;;;;10.1;5.4;;;;;;;17.8;35.1;98610;;;;
2023/04/28 16:23:45;;;;;;;10.1;5.4;;;;;;;17.3;36.6;98600;;;;
2023/04/28 16:34:45;;;;;;;8.5;4.2;;;;;;;16.6;37.8;98590;;;;
2023/04/28 16:44:45;;;;;;;8.5;4.2;;;;;;;16.1;39.1;98590;;;;
2023/04/28 16:55:45;;;;;;;8.5;4.2;;;;;;;15.4;40.1;98590;;;;
2023/04/28 17:05:45;;;;;;;16.1;7.3;;;;;;;14.8;41;98590;;;;
2023/04/28 17:15:45;;;;;;;16.1;7.3;;;;;;;14.4;41.7;98600;;;;
2023/04/28 17:25:45;;;;;;;16.1;7.3;;;;;;;13.8;43.1;98600;;;;
2023/04/28 17:35:45;;;;;;;8.9;5.6;;;;;;;13.5;43.9;98580;;;;
2023/04/28 17:46:45;;;;;;;8.9;5.6;;;;;;;13;44.8;98570;;;;
2023/04/28 17:57:45;;;;;;;8.2;4;;;;;;;12.7;45.9;98570;;;;
2023/04/28 18:07:45;;;;;;;8.2;4;;;;;;;12.4;46.4;98560;;;;
2023/04/28 18:18:46;;;;;;;8.2;4;;;;;;;12.1;47.3;98560;;;;
2023/04/28 18:29:45;;;;;;;10.7;4.5;;;;;;;11.9;48.3;98580;;;;
2023/04/28 18:39:45;;;;;;;10.7;4.5;;;;;;;11.7;48.9;98590;;;;
2023/04/28 18:50:46;;;;;;;10.7;4.5;;;;;;;11.6;49.2;98590;;;;
2023/04/28 19:01:45;;;;;;;8.7;5;;;;;;;11.4;49.9;98590;;;;
2023/04/28 19:12:45;;;;;;;8.7;5;;;;;;;11.3;50.5;98590;;;;
2023/04/28 19:23:45;;;;;;;8.7;5;;;;;;;11.2;51.3;98590;;;;
2023/04/28 19:34:45;;;;;;;10.7;4.9;;;;;;;11;51.6;98580;;;;
2023/04/28 19:45:45;;;;;;;10.7;4.9;;;;;;;10.7;51.6;98580;;;;
2023/04/28 19:55:45;;;;;;;10.7;4.9;;;;;;;10.4;52.1;98570;;;;
2023/04/28 20:05:45;;;;;;;9.8;5.4;;;;;;;10;53.1;98570;;;;
2023/04/28 20:16:45;;;;;;;9.8;5.4;;;;;;;9.5;54.1;98570;;;;
2023/04/28 20:27:46;;;;;;;11.1;6.3;;;;;;;9;55.2;98570;;;;
2023/04/28 20:38:45;;;;;;;11.1;6.3;;;;;;;8.7;55.9;98570;;;;
2023/04/28 20:48:45;;;;;;;11.1;6.3;;;;;;;8.3;57.8;98560;;;;
2023/04/28 20:59:45;;;;;;;11.9;6.8;;;;;;;8;59.5;98550;;;;
2023/04/28 21:10:45;;;;;;;11.9;6.8;;;;;;;7.7;61.3;98550;;;;
2023/04/28 21:20:45;;;;;;;11.9;6.8;;;;;;;7.4;61.3;98540;;;;
2023/04/28 21:30:45;;;;;;;16.3;8.7;;;;;;;7.1;62.8;98540;;;;
2023/04/28 21:40:45;;;;;;;16.3;8.7;;;;;;;6.9;62.9;98550;;;;
2023/04/28 21:51:45;;;;;;;16.3;8.7;;;;;;;6.6;63.1;98540;;;;
2023/04/28 22:01:45;;;;;;;15.6;8.9;;;;;;;6.5;64.8;98540;;;;
2023/04/28 22:11:45;;;;;;;15.6;8.9;;;;;;;6.3;65.2;98540;;;;
2023/04/28 22:22:45;;;;;;;15.6;8.9;;;;;;;6.2;66.5;98530;;;;
2023/04/28 22:33:45;;;;;;;13;8.2;;;;;;;6.2;65.9;98530;;;;
2023/04/28 22:43:45;;;;;;;13;8.2;;;;;;;6.1;65.7;98520;;;;
2023/04/28 22:54:45;;;;;;;13;8.2;;;;;;;6;67.6;98520;;;;
2023/04/28 23:04:45;;;;;;;13.2;8.1;;;;;;;5.9;68.5;98530;;;;
2023/04/28 23:14:45;;;;;;;13.2;8.1;;;;;;;5.8;68;98530;;;;
2023/04/28 23:25:45;;;;;;;12.1;7.9;;;;;;;5.7;69.6;98510;;;;
2023/04/28 23:35:45;;;;;;;12.1;7.9;;;;;;;5.6;71.2;98500;;;;
2023/04/28 23:45:45;;;;;;;12.1;7.9;;;;;;;5.6;72.2;98500;;;;
2023/04/28 23:55:45;;;;;;;16.5;9.7;;;;;;;5.6;72;98490;;;;
